createdAt,value
2023-01-17T00:01:34.183Z,90.49
2023-01-17T00:04:19.353Z,90.64
2023-01-17T00:07:04.622Z,90.57
2023-01-17T00:09:50.013Z,90.67
2023-01-17T00:12:16.662Z,90.71
2023-01-17T00:14:43.367Z,90.55
2023-01-17T00:17:10.036Z,90.45
2023-01-17T00:19:54.891Z,90.45
2023-01-17T00:22:41.948Z,89.85
2023-01-17T00:25:31.865Z,89.83
2023-01-17T00:28:16.423Z,89.78
2023-01-17T00:30:43.086Z,89.86
2023-01-17T00:33:09.623Z,89.85
2023-01-17T00:35:36.238Z,89.56
2023-01-17T00:38:09.929Z,89.68
2023-01-17T00:40:39.007Z,89.81
2023-01-17T00:43:26.032Z,89.97
2023-01-17T00:46:11.778Z,90.09
2023-01-17T00:48:57.989Z,90.32
2023-01-17T00:51:44.419Z,90.74
2023-01-17T00:54:30.142Z,91.13
2023-01-17T00:57:15.744Z,91.30
2023-01-17T01:00:01.203Z,92.01
2023-01-17T01:02:46.612Z,92.11
2023-01-17T01:05:32.981Z,92.37
2023-01-17T01:08:19.328Z,92.38
2023-01-17T01:11:06.190Z,92.12
2023-01-17T01:13:52.286Z,92.26
2023-01-17T01:16:38.281Z,91.81
2023-01-17T01:19:23.890Z,91.63
2023-01-17T01:22:09.134Z,91.68
2023-01-17T01:24:54.416Z,91.69
2023-01-17T01:27:39.311Z,91.53
2023-01-17T01:30:25.491Z,91.64
2023-01-17T01:33:10.697Z,91.49
2023-01-17T01:35:37.653Z,91.34
2023-01-17T01:38:04.980Z,91.38
2023-01-17T01:40:31.729Z,91.66
2023-01-17T01:43:00.303Z,91.52
2023-01-17T01:45:32.427Z,91.92
2023-01-17T01:48:17.659Z,91.78
2023-01-17T01:50:44.367Z,91.76
2023-01-17T01:53:11.697Z,91.67
2023-01-17T01:55:40.948Z,91.88
2023-01-17T01:58:16.454Z,92.13
2023-01-17T02:00:43.218Z,92.35
2023-01-17T02:03:17.020Z,92.75
2023-01-17T02:05:44.040Z,92.98
2023-01-17T02:08:13.761Z,92.73
2023-01-17T02:10:41.945Z,92.44
2023-01-17T02:13:10.412Z,92.59
2023-01-17T02:15:55.040Z,92.91
2023-01-17T02:18:24.646Z,92.88
2023-01-17T02:21:19.776Z,92.76
2023-01-17T02:23:46.285Z,92.72
2023-01-17T02:26:24.895Z,92.88
2023-01-17T02:29:28.530Z,92.76
2023-01-17T02:32:01.294Z,92.71
2023-01-17T02:34:51.344Z,92.43
2023-01-17T02:37:18.152Z,92.38
2023-01-17T02:39:56.039Z,92.13
2023-01-17T02:42:30.277Z,92.23
2023-01-17T02:44:56.871Z,92.00
2023-01-17T02:47:26.727Z,92.27
2023-01-17T02:50:13.869Z,92.47
2023-01-17T02:53:02.384Z,92.20
2023-01-17T02:55:37.880Z,92.32
2023-01-17T02:58:10.293Z,92.37
2023-01-17T03:00:40.853Z,92.12
2023-01-17T03:03:13.788Z,91.99
2023-01-17T03:05:48.588Z,91.78
2023-01-17T03:08:16.713Z,91.73
2023-01-17T03:10:44.839Z,91.43
2023-01-17T03:13:11.472Z,91.51
2023-01-17T03:15:39.513Z,91.76
2023-01-17T03:18:11.996Z,91.74
2023-01-17T03:20:38.686Z,91.79
2023-01-17T03:23:05.488Z,91.83
2023-01-17T03:25:32.362Z,91.60
2023-01-17T03:27:59.165Z,91.75
2023-01-17T03:30:25.867Z,91.84
2023-01-17T03:32:52.457Z,91.90
2023-01-17T03:35:19.141Z,91.72
2023-01-17T03:37:45.814Z,91.65
2023-01-17T03:40:15.558Z,91.62
2023-01-17T03:42:42.851Z,91.59
2023-01-17T03:45:09.867Z,91.57
2023-01-17T03:47:36.516Z,91.53
2023-01-17T03:50:03.924Z,91.69
2023-01-17T03:52:30.672Z,91.59
2023-01-17T03:54:57.534Z,91.38
2023-01-17T03:57:24.213Z,91.94
2023-01-17T03:59:50.921Z,91.59
2023-01-17T04:02:17.972Z,91.43
2023-01-17T04:04:44.607Z,91.36
2023-01-17T04:07:11.207Z,91.46
2023-01-17T04:09:38.058Z,91.73
2023-01-17T04:12:04.917Z,91.67
2023-01-17T04:14:31.634Z,91.45
2023-01-17T04:16:58.633Z,91.78
2023-01-17T04:19:25.546Z,92.41
2023-01-17T04:21:55.393Z,92.44
2023-01-17T04:24:23.990Z,93.61
2023-01-17T04:26:50.647Z,93.33
2023-01-17T04:29:17.367Z,93.39
2023-01-17T04:31:44.070Z,93.67
2023-01-17T04:34:10.819Z,94.06
2023-01-17T04:36:38.040Z,94.68
2023-01-17T04:39:04.782Z,95.20
2023-01-17T04:41:31.583Z,95.39
2023-01-17T04:43:58.258Z,95.67
2023-01-17T04:46:25.127Z,95.91
2023-01-17T04:48:51.766Z,96.10
2023-01-17T04:51:18.389Z,96.93
2023-01-17T04:53:45.185Z,97.21
2023-01-17T04:56:11.874Z,97.78
2023-01-17T04:58:38.550Z,97.80
2023-01-17T05:01:07.188Z,98.15
2023-01-17T05:03:34.759Z,98.34
2023-01-17T05:06:04.192Z,98.59
2023-01-17T05:08:30.805Z,98.74
2023-01-17T05:10:57.719Z,99.27
2023-01-17T05:13:24.336Z,99.42
2023-01-17T05:15:51.143Z,99.64
2023-01-17T05:18:18.773Z,99.69
2023-01-17T05:20:45.705Z,99.94
2023-01-17T05:23:12.385Z,100.00
2023-01-17T05:25:44.292Z,100.00
2023-01-17T05:28:12.955Z,99.92
2023-01-17T05:30:39.744Z,99.50
2023-01-17T05:33:08.029Z,99.39
2023-01-17T05:35:34.877Z,99.95
2023-01-17T05:38:02.128Z,99.92
2023-01-17T05:40:31.078Z,99.59
2023-01-17T05:42:59.528Z,99.55
2023-01-17T05:45:28.211Z,99.52
2023-01-17T05:47:56.276Z,99.31
2023-01-17T05:50:25.706Z,98.94
2023-01-17T05:52:55.725Z,98.57
2023-01-17T05:55:23.824Z,98.17
2023-01-17T05:57:50.831Z,97.94
2023-01-17T06:00:18.517Z,97.89
2023-01-17T06:02:46.275Z,97.65
2023-01-17T06:05:14.141Z,97.65
2023-01-17T06:07:43.934Z,97.88
2023-01-17T06:10:11.096Z,97.83
2023-01-17T06:12:37.853Z,97.70
2023-01-17T06:15:04.873Z,97.38
2023-01-17T06:17:31.429Z,97.29
2023-01-17T06:19:58.146Z,97.92
2023-01-17T06:22:24.844Z,98.38
2023-01-17T06:24:51.500Z,98.23
2023-01-17T06:27:18.243Z,98.52
2023-01-17T06:29:45.032Z,98.50
2023-01-17T06:32:13.360Z,98.61
2023-01-17T06:34:41.055Z,98.34
2023-01-17T06:37:07.929Z,97.96
2023-01-17T06:39:34.632Z,97.63
2023-01-17T06:42:01.383Z,98.05
2023-01-17T06:44:28.040Z,98.16
2023-01-17T06:46:54.713Z,97.77
2023-01-17T06:49:21.399Z,97.28
2023-01-17T06:51:48.248Z,97.48
2023-01-17T06:54:15.168Z,97.09
2023-01-17T06:56:42.490Z,97.10
2023-01-17T06:59:09.091Z,96.94
2023-01-17T07:01:36.689Z,96.75
2023-01-17T07:04:04.698Z,96.51
2023-01-17T07:06:31.347Z,96.39
2023-01-17T07:08:59.627Z,96.18
2023-01-17T07:11:27.429Z,95.96
2023-01-17T07:13:54.269Z,95.83
2023-01-17T07:16:21.098Z,95.49
2023-01-17T07:18:51.911Z,95.33
2023-01-17T07:21:18.739Z,95.06
2023-01-17T07:23:45.611Z,95.15
2023-01-17T07:26:12.284Z,94.88
2023-01-17T07:28:39.058Z,94.81
2023-01-17T07:31:08.087Z,94.39
2023-01-17T07:33:35.327Z,94.18
2023-01-17T07:36:07.471Z,94.07
2023-01-17T07:38:34.938Z,93.79
2023-01-17T07:41:01.735Z,93.60
2023-01-17T07:43:28.454Z,93.15
2023-01-17T07:45:58.221Z,93.11
2023-01-17T07:48:27.967Z,93.08
2023-01-17T07:50:56.094Z,93.31
2023-01-17T07:53:27.770Z,93.21
2023-01-17T07:55:54.607Z,93.36
2023-01-17T07:58:21.874Z,93.39
2023-01-17T08:00:48.598Z,93.45
2023-01-17T08:03:17.811Z,93.77
2023-01-17T08:05:53.719Z,94.01
2023-01-17T08:08:20.317Z,93.89
2023-01-17T08:10:47.301Z,93.75
2023-01-17T08:13:13.924Z,93.76
2023-01-17T08:15:40.616Z,93.95
2023-01-17T08:18:07.301Z,94.65
2023-01-17T08:20:33.912Z,94.52
2023-01-17T08:23:00.493Z,94.61
2023-01-17T08:25:27.468Z,94.46
2023-01-17T08:27:58.351Z,94.27
2023-01-17T08:30:25.974Z,94.44
2023-01-17T08:32:52.725Z,94.48
2023-01-17T08:35:20.294Z,94.52
2023-01-17T08:37:47.890Z,94.37
2023-01-17T08:40:18.174Z,94.23
2023-01-17T08:42:44.796Z,94.38
2023-01-17T08:45:12.839Z,94.53
2023-01-17T08:47:39.587Z,94.62
2023-01-17T08:50:07.004Z,94.62
2023-01-17T08:52:34.751Z,94.63
2023-01-17T08:55:02.106Z,94.85
2023-01-17T08:57:31.173Z,94.73
2023-01-17T08:59:57.842Z,94.76
2023-01-17T09:02:24.809Z,94.60
2023-01-17T09:04:51.854Z,94.65
2023-01-17T09:07:20.346Z,94.73
2023-01-17T09:09:47.186Z,94.67
2023-01-17T09:12:13.845Z,94.73
2023-01-17T09:14:40.438Z,94.93
2023-01-17T09:17:07.129Z,94.73
2023-01-17T09:19:35.446Z,94.71
2023-01-17T09:22:04.660Z,94.85
2023-01-17T09:24:32.834Z,94.89
2023-01-17T09:27:00.023Z,94.83
2023-01-17T09:29:26.652Z,94.80
2023-01-17T09:31:53.609Z,94.52
2023-01-17T09:34:20.190Z,94.04
2023-01-17T09:36:46.973Z,93.74
2023-01-17T09:39:15.392Z,93.21
2023-01-17T09:42:01.980Z,93.53
2023-01-17T09:44:39.126Z,93.42
2023-01-17T09:47:39.357Z,93.66
2023-01-17T09:50:37.560Z,93.85
2023-01-17T09:53:18.602Z,94.05
2023-01-17T09:55:57.012Z,94.56
2023-01-17T09:58:48.221Z,94.90
2023-01-17T10:01:22.813Z,95.19
2023-01-17T10:03:56.963Z,95.38
2023-01-17T10:06:42.480Z,95.66
2023-01-17T10:09:26.410Z,96.05
2023-01-17T10:12:10.263Z,96.66
2023-01-17T10:15:07.235Z,97.01
2023-01-17T10:17:36.439Z,97.30
2023-01-17T10:20:18.886Z,97.76
2023-01-17T10:23:07.111Z,97.61
2023-01-17T10:25:39.409Z,97.49
2023-01-17T10:28:28.123Z,98.10
2023-01-17T10:30:59.703Z,97.96
2023-01-17T10:34:05.699Z,98.14
2023-01-17T10:36:40.373Z,98.05
2023-01-17T10:39:20.235Z,98.32
2023-01-17T10:41:58.080Z,98.38
2023-01-17T10:44:55.474Z,98.37
2023-01-17T10:47:28.798Z,98.23
2023-01-17T10:49:59.569Z,98.22
2023-01-17T10:52:53.392Z,97.98
2023-01-17T10:55:23.891Z,97.54
2023-01-17T10:57:52.670Z,97.11
2023-01-17T11:00:31.137Z,97.32
2023-01-17T11:02:58.695Z,96.87
2023-01-17T11:05:30.887Z,96.81
2023-01-17T11:07:58.857Z,96.55
2023-01-17T11:10:48.389Z,96.34
2023-01-17T11:13:36.973Z,95.94
2023-01-17T11:16:08.960Z,95.25
2023-01-17T11:18:39.265Z,94.37
2023-01-17T11:21:12.337Z,94.19
2023-01-17T11:23:42.673Z,93.96
2023-01-17T11:26:21.173Z,93.60
2023-01-17T11:28:47.971Z,93.46
2023-01-17T11:31:16.712Z,93.34
2023-01-17T11:33:54.049Z,92.88
2023-01-17T11:36:27.515Z,92.77
2023-01-17T11:39:03.190Z,92.79
2023-01-17T11:41:40.320Z,93.10
2023-01-17T11:44:33.499Z,92.92
2023-01-17T11:47:12.132Z,92.68
2023-01-17T11:49:49.232Z,92.95
2023-01-17T11:52:23.404Z,92.94
2023-01-17T11:54:51.672Z,92.79
2023-01-17T11:57:18.266Z,92.26
2023-01-17T11:59:45.917Z,92.16
2023-01-17T12:02:24.475Z,92.35
2023-01-17T12:05:01.313Z,92.94
2023-01-17T12:07:55.969Z,92.70
2023-01-17T12:10:44.180Z,92.78
2023-01-17T12:13:36.521Z,92.43
2023-01-17T12:16:24.478Z,91.78
2023-01-17T12:18:56.541Z,91.36
2023-01-17T12:22:02.594Z,90.82
2023-01-17T12:25:00.048Z,90.74
2023-01-17T12:27:29.531Z,90.33
2023-01-17T12:30:30.855Z,89.91
2023-01-17T12:33:36.775Z,89.88
2023-01-17T12:36:17.667Z,89.38
2023-01-17T12:38:50.076Z,88.79
2023-01-17T12:41:16.679Z,88.47
2023-01-17T12:43:44.826Z,88.01
2023-01-17T12:46:34.372Z,88.83
2023-01-17T12:49:19.537Z,88.42
2023-01-17T12:51:50.359Z,88.62
2023-01-17T12:54:29.068Z,88.94
2023-01-17T12:57:02.847Z,88.97
2023-01-17T12:59:51.344Z,89.30
2023-01-17T13:02:46.087Z,89.25
2023-01-17T13:05:26.111Z,89.30
2023-01-17T13:08:01.075Z,89.52
2023-01-17T13:10:35.788Z,89.61
2023-01-17T13:13:13.456Z,89.30
2023-01-17T13:15:42.915Z,89.41
2023-01-17T13:18:15.629Z,89.70
2023-01-17T13:20:56.260Z,89.56
2023-01-17T13:23:31.030Z,89.71
2023-01-17T13:26:00.207Z,89.98
2023-01-17T13:28:53.544Z,89.98
2023-01-17T13:31:39.680Z,89.79
2023-01-17T13:34:32.284Z,90.19
2023-01-17T13:37:06.931Z,90.15
2023-01-17T13:40:03.458Z,90.12
2023-01-17T13:43:02.712Z,89.96
2023-01-17T13:45:38.203Z,90.32
2023-01-17T13:48:20.659Z,90.36
2023-01-17T13:50:57.549Z,90.77
2023-01-17T13:53:31.551Z,90.92
2023-01-17T13:56:27.250Z,91.07
2023-01-17T13:59:10.935Z,91.17
2023-01-17T14:01:43.691Z,91.19
2023-01-17T14:04:15.652Z,91.31
2023-01-17T14:06:52.934Z,91.75
2023-01-17T14:09:28.163Z,92.29
2023-01-17T14:11:57.241Z,92.60
2023-01-17T14:14:43.297Z,92.94
2023-01-17T14:17:16.449Z,93.24
2023-01-17T14:19:53.808Z,93.61
2023-01-17T14:22:20.417Z,93.72
2023-01-17T14:25:22.445Z,94.02
2023-01-17T14:27:53.894Z,94.05
2023-01-17T14:30:32.687Z,94.38
2023-01-17T14:32:59.368Z,94.64
2023-01-17T14:35:40.708Z,94.92
2023-01-17T14:38:19.141Z,95.11
2023-01-17T14:41:01.721Z,95.20
2023-01-17T14:43:33.042Z,95.57
2023-01-17T14:46:03.808Z,95.44
2023-01-17T14:48:30.973Z,95.73
2023-01-17T14:51:00.826Z,96.02
2023-01-17T14:53:29.937Z,96.41
2023-01-17T14:56:17.233Z,96.24
2023-01-17T14:58:46.637Z,96.41
2023-01-17T15:01:19.586Z,96.28
2023-01-17T15:03:57.121Z,96.48
2023-01-17T15:06:48.718Z,96.69
2023-01-17T15:09:25.896Z,96.91
2023-01-17T15:11:54.487Z,96.80
2023-01-17T15:14:34.633Z,96.91
2023-01-17T15:17:24.603Z,97.13
2023-01-17T15:20:00.029Z,97.10
2023-01-17T15:22:29.220Z,97.12
2023-01-17T15:24:56.922Z,97.25
2023-01-17T15:27:26.316Z,97.27
2023-01-17T15:29:54.113Z,97.44
2023-01-17T15:32:27.207Z,97.55
2023-01-17T15:34:54.280Z,97.68
2023-01-17T15:37:24.744Z,97.95
2023-01-17T15:40:23.268Z,97.85
2023-01-17T15:43:07.014Z,98.03
2023-01-17T15:45:34.143Z,98.10
2023-01-17T15:48:51.525Z,98.19
2023-01-17T15:51:35.187Z,98.39
2023-01-17T15:54:45.857Z,98.37
2023-01-17T15:57:40.861Z,98.32
2023-01-17T16:00:23.209Z,98.23
2023-01-17T16:02:55.865Z,98.13
2023-01-17T16:05:23.278Z,98.23
2023-01-17T16:08:17.205Z,98.15
2023-01-17T16:10:44.748Z,98.27
2023-01-17T16:13:13.606Z,98.16
2023-01-17T16:15:47.065Z,98.12
2023-01-17T16:18:23.997Z,97.97
2023-01-17T16:23:52.565Z,98.31
2023-01-17T16:26:19.312Z,98.35
2023-01-17T16:28:46.077Z,98.44
2023-01-17T16:31:12.888Z,98.41
2023-01-17T16:33:57.396Z,98.38
2023-01-17T16:36:23.966Z,98.44
2023-01-17T16:38:51.934Z,98.63
2023-01-17T16:41:19.661Z,98.57
2023-01-17T16:43:48.215Z,98.61
2023-01-17T16:46:15.600Z,98.77
2023-01-17T16:48:42.290Z,98.69
2023-01-17T16:51:09.101Z,98.68
2023-01-17T16:53:37.071Z,98.71
2023-01-17T16:56:12.123Z,98.87
2023-01-17T16:58:39.148Z,99.01
2023-01-17T17:01:17.334Z,99.04
2023-01-17T17:03:45.246Z,99.14
2023-01-17T17:06:12.657Z,99.01
2023-01-17T17:08:39.985Z,99.03
2023-01-17T17:11:20.006Z,99.21
2023-01-17T17:13:48.945Z,99.17
2023-01-17T17:16:20.937Z,99.25
2023-01-17T17:18:55.134Z,99.38
2023-01-17T17:21:22.104Z,99.65
2023-01-17T17:23:54.849Z,99.48
2023-01-17T17:26:21.438Z,99.47
2023-01-17T17:28:52.457Z,99.26
2023-01-17T17:31:19.712Z,99.36
2023-01-17T17:33:46.625Z,99.44
2023-01-17T17:36:13.590Z,99.18
2023-01-17T17:38:53.235Z,99.41
2023-01-17T17:41:26.815Z,99.37
2023-01-17T17:43:54.192Z,99.43
2023-01-17T17:46:22.745Z,99.33
2023-01-17T17:48:49.798Z,99.28
2023-01-17T17:51:38.491Z,99.48
2023-01-17T17:54:10.451Z,99.26
2023-01-17T17:56:37.999Z,99.16
2023-01-17T17:59:06.977Z,99.18
2023-01-17T18:01:33.713Z,98.98
2023-01-17T18:04:04.195Z,98.95
2023-01-17T18:06:30.926Z,99.09
2023-01-17T18:08:57.499Z,98.84
2023-01-17T18:11:26.207Z,98.84
2023-01-17T18:13:54.993Z,99.06
2023-01-17T18:16:30.800Z,99.08
2023-01-17T18:18:59.036Z,98.85
2023-01-17T18:21:28.655Z,98.94
2023-01-17T18:24:00.962Z,98.78
2023-01-17T18:26:41.790Z,98.75
2023-01-17T18:29:11.041Z,98.74
2023-01-17T18:31:37.770Z,98.55
2023-01-17T18:34:06.898Z,98.55
2023-01-17T18:36:37.121Z,98.42
2023-01-17T18:39:18.956Z,98.42
2023-01-17T18:41:46.154Z,98.55
2023-01-17T18:44:13.108Z,98.59
2023-01-17T18:46:42.049Z,98.70
2023-01-17T18:49:12.419Z,98.89
2023-01-17T18:51:39.212Z,98.84
2023-01-17T18:54:07.345Z,98.84
2023-01-17T18:56:35.137Z,98.61
2023-01-17T18:59:02.511Z,99.03
2023-01-17T19:04:38.455Z,98.42
2023-01-17T19:07:05.180Z,98.49
2023-01-17T19:09:32.271Z,98.47
2023-01-17T19:12:00.072Z,98.58
2023-01-17T19:14:26.895Z,98.17
2023-01-17T19:16:53.615Z,98.46
2023-01-17T19:19:20.288Z,98.69
2023-01-17T19:21:51.563Z,98.76
2023-01-17T19:24:18.255Z,98.79
2023-01-17T19:26:45.604Z,98.97
2023-01-17T19:29:12.356Z,98.85
2023-01-17T19:31:44.489Z,98.74
2023-01-17T19:34:14.188Z,98.85
2023-01-17T19:36:40.825Z,98.81
2023-01-17T19:39:09.667Z,99.00
2023-01-17T19:41:46.364Z,98.76
2023-01-17T19:44:14.109Z,99.11
2023-01-17T19:46:40.824Z,98.96
2023-01-17T19:49:09.131Z,98.95
2023-01-17T19:51:36.547Z,98.88
2023-01-17T19:54:04.279Z,98.87
2023-01-17T19:56:31.051Z,98.72
2023-01-17T19:59:01.156Z,98.62
2023-01-17T20:01:30.740Z,98.43
2023-01-17T20:03:58.605Z,98.23
2023-01-17T20:06:28.996Z,98.63
2023-01-17T20:08:56.741Z,98.20
2023-01-17T20:11:24.826Z,97.71
2023-01-17T20:13:54.338Z,97.24
2023-01-17T20:16:22.653Z,96.85
2023-01-17T20:18:49.522Z,96.07
2023-01-17T20:21:18.627Z,95.75
2023-01-17T20:23:47.157Z,95.62
2023-01-17T20:26:21.632Z,96.02
2023-01-17T20:28:49.019Z,96.05
2023-01-17T20:31:24.244Z,96.46
2023-01-17T20:33:53.320Z,96.92
2023-01-17T20:36:25.639Z,96.70
2023-01-17T20:38:54.479Z,96.88
2023-01-17T20:41:28.747Z,96.91
2023-01-17T20:43:57.635Z,97.08
2023-01-17T20:46:27.016Z,96.50
2023-01-17T20:48:57.873Z,95.80
2023-01-17T20:51:26.781Z,95.58
2023-01-17T20:53:59.224Z,94.80
2023-01-17T20:56:26.582Z,94.36
2023-01-17T20:58:54.313Z,94.40
2023-01-17T21:01:23.064Z,94.03
2023-01-17T21:03:54.059Z,92.84
2023-01-17T21:06:23.639Z,92.35
2023-01-17T21:08:51.622Z,91.06
2023-01-17T21:11:30.697Z,90.63
2023-01-17T21:13:57.614Z,91.03
2023-01-17T21:16:24.287Z,91.19
2023-01-17T21:18:52.687Z,91.39
2023-01-17T21:21:24.303Z,91.00
2023-01-17T21:23:52.993Z,90.90
2023-01-17T21:26:21.904Z,90.00
2023-01-17T21:28:49.991Z,89.85
2023-01-17T21:31:25.038Z,90.45
2023-01-17T21:33:55.946Z,90.95
2023-01-17T21:36:26.191Z,91.27
2023-01-17T21:38:57.029Z,91.72
2023-01-17T21:41:27.413Z,91.97
2023-01-17T21:43:56.113Z,91.96
2023-01-17T21:46:23.548Z,91.84
2023-01-17T21:48:50.351Z,90.92
2023-01-17T21:51:17.508Z,90.93
2023-01-17T21:53:44.114Z,91.38
2023-01-17T21:56:31.676Z,91.25
2023-01-17T21:58:59.097Z,91.75
2023-01-17T22:01:30.208Z,91.82
2023-01-17T22:03:59.963Z,92.08
2023-01-17T22:06:29.495Z,92.47
2023-01-17T22:08:56.375Z,92.31
2023-01-17T22:11:25.201Z,92.11
2023-01-17T22:13:53.030Z,92.17
2023-01-17T22:16:23.394Z,92.55
2023-01-17T22:18:50.892Z,92.17
2023-01-17T22:21:26.336Z,91.58
2023-01-17T22:23:58.566Z,89.18
2023-01-17T22:26:28.351Z,86.38
2023-01-17T22:28:55.461Z,85.38
2023-01-17T22:31:27.219Z,85.45
2023-01-17T22:34:04.433Z,83.51
2023-01-17T22:36:34.835Z,84.82
2023-01-17T22:39:01.429Z,83.98
2023-01-17T22:41:34.703Z,84.66
2023-01-17T22:44:02.497Z,86.06
2023-01-17T22:46:31.109Z,86.38
2023-01-17T22:48:57.935Z,85.51
2023-01-17T22:51:32.669Z,86.18
2023-01-17T22:54:00.949Z,87.18
2023-01-17T22:56:32.449Z,88.28
2023-01-17T22:59:03.322Z,88.46
2023-01-17T23:01:32.611Z,88.98
2023-01-17T23:04:02.715Z,89.57
2023-01-17T23:06:33.761Z,88.20
2023-01-17T23:09:06.242Z,86.88
2023-01-17T23:11:47.136Z,87.52
2023-01-17T23:14:23.567Z,87.82
2023-01-17T23:17:13.086Z,88.46
2023-01-17T23:19:54.767Z,88.67
2023-01-17T23:22:27.785Z,88.71
2023-01-17T23:24:57.250Z,88.46
2023-01-17T23:27:44.345Z,88.99
2023-01-17T23:30:14.582Z,88.85
2023-01-17T23:32:48.823Z,88.16
2023-01-17T23:35:17.339Z,88.01
2023-01-17T23:38:02.545Z,88.55
2023-01-17T23:40:31.697Z,89.02
2023-01-17T23:43:16.830Z,89.05
2023-01-17T23:45:43.467Z,88.49
2023-01-17T23:48:10.841Z,88.82
2023-01-17T23:50:44.212Z,88.87
2023-01-17T23:53:16.138Z,89.16
2023-01-17T23:55:45.693Z,89.26
2023-01-17T23:58:12.774Z,89.68
